createdAt,value
2018-11-04T00:00:03.563Z,26.27
2018-11-04T00:03:36.721Z,26.03
2018-11-04T00:07:09.956Z,27.53
2018-11-04T00:10:43.202Z,26.80
2018-11-04T00:14:16.425Z,26.47
2018-11-04T00:17:49.639Z,26.67
2018-11-04T00:21:22.855Z,26.00
2018-11-04T00:24:56.076Z,27.53
2018-11-04T00:28:29.324Z,24.50
2018-11-04T00:32:02.537Z,24.73
2018-11-04T00:35:35.764Z,25.57
2018-11-04T00:39:09.488Z,22.37
2018-11-04T00:42:42.708Z,24.33
2018-11-04T00:46:15.941Z,26.27
2018-11-04T00:49:49.180Z,24.37
2018-11-04T00:53:22.400Z,22.87
2018-11-04T00:56:55.619Z,23.97
2018-11-04T01:00:28.855Z,25.27
2018-11-04T01:04:02.081Z,21.40
2018-11-04T01:07:35.323Z,24.80
2018-11-04T01:11:08.529Z,23.70
2018-11-04T01:14:41.851Z,24.20
2018-11-04T01:18:15.116Z,24.10
2018-11-04T01:21:48.349Z,23.17
2018-11-04T01:25:21.602Z,24.03
2018-11-04T01:28:54.850Z,23.67
2018-11-04T01:32:28.095Z,24.50
2018-11-04T01:36:01.345Z,23.40
2018-11-04T01:39:34.594Z,22.80
2018-11-04T01:43:07.853Z,22.37
2018-11-04T01:46:42.116Z,22.40
2018-11-04T01:50:15.460Z,22.77
2018-11-04T01:53:48.714Z,23.00
2018-11-04T01:57:22.088Z,22.47
2018-11-04T02:00:55.326Z,22.90
2018-11-04T02:04:28.561Z,21.13
2018-11-04T02:08:01.828Z,23.50
2018-11-04T02:11:35.088Z,24.30
2018-11-04T02:15:09.606Z,23.47
2018-11-04T02:18:42.932Z,22.27
2018-11-04T02:22:16.181Z,25.27
2018-11-04T02:25:49.417Z,23.80
2018-11-04T02:29:22.680Z,23.73
2018-11-04T02:32:55.923Z,23.40
2018-11-04T02:36:29.166Z,21.63
2018-11-04T02:40:02.401Z,22.20
2018-11-04T02:43:35.660Z,21.47
2018-11-04T02:47:09.020Z,22.23
2018-11-04T02:50:42.178Z,18.37
2018-11-04T02:54:15.417Z,21.30
2018-11-04T02:57:48.670Z,21.10
2018-11-04T03:01:21.917Z,21.40
2018-11-04T03:04:55.140Z,21.30
2018-11-04T03:08:28.397Z,18.43
2018-11-04T03:12:01.664Z,20.90
2018-11-04T03:15:34.995Z,19.70
2018-11-04T03:19:08.261Z,18.83
2018-11-04T03:22:41.499Z,18.90
2018-11-04T03:26:14.802Z,18.70
2018-11-04T03:29:48.019Z,19.67
2018-11-04T03:33:21.264Z,19.20
2018-11-04T03:36:54.509Z,17.73
2018-11-04T03:40:27.760Z,17.63
2018-11-04T03:44:01.026Z,19.73
2018-11-04T03:47:34.281Z,18.03
2018-11-04T03:51:07.537Z,18.70
2018-11-04T03:54:40.762Z,18.80
2018-11-04T03:58:14.017Z,17.43
2018-11-04T04:01:47.261Z,17.90
2018-11-04T04:05:20.502Z,16.60
2018-11-04T04:08:53.757Z,15.73
2018-11-04T04:12:27.001Z,18.83
2018-11-04T04:16:00.242Z,17.83
2018-11-04T04:19:33.476Z,19.40
2018-11-04T04:23:06.724Z,17.60
2018-11-04T04:26:39.965Z,17.80
2018-11-04T04:30:13.213Z,18.53
2018-11-04T04:33:46.452Z,18.37
2018-11-04T04:37:19.706Z,16.93
2018-11-04T04:40:53.358Z,15.77
2018-11-04T04:44:26.602Z,16.13
2018-11-04T04:47:59.844Z,16.00
2018-11-04T04:51:33.397Z,16.03
2018-11-04T04:55:06.686Z,14.67
2018-11-04T04:58:39.939Z,16.03
2018-11-04T05:02:13.217Z,15.07
2018-11-04T05:05:46.444Z,15.00
2018-11-04T05:09:19.698Z,14.27
2018-11-04T05:12:53.158Z,17.10
2018-11-04T05:16:26.389Z,15.37
2018-11-04T05:19:59.645Z,14.90
2018-11-04T05:23:32.889Z,16.43
2018-11-04T05:27:06.140Z,16.60
2018-11-04T05:30:39.380Z,14.37
2018-11-04T05:34:13.185Z,15.40
2018-11-04T05:37:46.438Z,15.47
2018-11-04T05:41:19.675Z,15.23
2018-11-04T05:44:52.918Z,14.27
2018-11-04T05:48:26.165Z,14.60
2018-11-04T05:51:59.392Z,13.83
2018-11-04T05:55:32.629Z,13.60
2018-11-04T05:59:05.865Z,14.70
2018-11-04T06:02:39.375Z,13.23
2018-11-04T06:06:12.632Z,13.87
2018-11-04T06:09:45.875Z,14.10
2018-11-04T06:13:19.113Z,12.87
2018-11-04T06:16:52.342Z,13.10
2018-11-04T06:20:25.590Z,12.90
2018-11-04T06:23:58.942Z,15.63
2018-11-04T06:27:32.180Z,12.03
2018-11-04T06:31:05.425Z,13.53
2018-11-04T06:34:38.683Z,13.23
2018-11-04T06:38:11.932Z,12.77
2018-11-04T06:41:45.181Z,12.37
2018-11-04T06:45:18.422Z,12.47
2018-11-04T06:48:51.677Z,11.17
2018-11-04T06:52:24.922Z,13.40
2018-11-04T06:55:58.194Z,11.13
2018-11-04T06:59:31.479Z,12.10
2018-11-04T07:03:04.839Z,11.90
2018-11-04T07:06:38.077Z,13.47
2018-11-04T07:10:11.403Z,12.20
2018-11-04T07:13:44.649Z,13.00
2018-11-04T07:17:17.893Z,12.03
2018-11-04T07:20:51.408Z,11.47
2018-11-04T07:24:24.681Z,10.97
2018-11-04T07:27:57.933Z,12.30
2018-11-04T07:31:31.189Z,13.73
2018-11-04T07:35:04.543Z,11.50
2018-11-04T07:38:37.770Z,11.13
2018-11-04T07:42:11.036Z,11.73
2018-11-04T07:45:44.304Z,11.60
2018-11-04T07:49:17.549Z,12.07
2018-11-04T07:52:50.782Z,11.50
2018-11-04T07:56:24.037Z,13.20
2018-11-04T07:59:57.293Z,11.33
2018-11-04T08:03:30.556Z,11.10
2018-11-04T08:07:03.893Z,10.83
2018-11-04T08:10:37.132Z,9.67
2018-11-04T08:14:10.361Z,9.87
2018-11-04T08:17:43.609Z,11.40
2018-11-04T08:21:16.917Z,10.77
2018-11-04T08:24:50.112Z,10.17
2018-11-04T08:28:23.366Z,9.90
2018-11-04T08:31:56.609Z,10.77
2018-11-04T08:35:29.863Z,9.67
2018-11-04T08:39:03.356Z,11.90
2018-11-04T08:42:36.593Z,9.47
2018-11-04T08:46:09.894Z,9.80
2018-11-04T08:49:43.125Z,10.00
2018-11-04T08:53:16.373Z,10.40
2018-11-04T08:56:49.610Z,9.53
2018-11-04T09:00:22.864Z,9.70
2018-11-04T09:03:56.102Z,10.30
2018-11-04T09:07:29.341Z,9.93
2018-11-04T09:11:02.605Z,9.00
2018-11-04T09:14:35.837Z,9.30
2018-11-04T09:18:09.093Z,11.20
2018-11-04T09:21:42.394Z,10.37
2018-11-04T09:25:15.606Z,11.57
2018-11-04T09:28:48.858Z,10.40
2018-11-04T09:32:22.126Z,9.23
2018-11-04T09:35:55.582Z,10.40
2018-11-04T09:39:28.641Z,10.10
2018-11-04T09:43:01.893Z,10.07
2018-11-04T09:46:35.148Z,9.10
2018-11-04T09:50:09.912Z,9.63
2018-11-04T09:53:43.153Z,10.23
2018-11-04T09:57:16.403Z,10.90
2018-11-04T10:00:49.657Z,13.30
2018-11-04T10:04:22.904Z,11.37
2018-11-04T10:07:56.153Z,12.50
2018-11-04T10:11:29.413Z,9.70
2018-11-04T10:15:02.644Z,8.77
2018-11-04T10:18:35.951Z,10.50
2018-11-04T10:22:09.227Z,9.73
2018-11-04T10:25:42.464Z,8.70
2018-11-04T10:29:15.728Z,9.53
2018-11-04T10:32:49.017Z,9.70
2018-11-04T10:36:22.300Z,8.40
2018-11-04T10:39:55.534Z,11.20
2018-11-04T10:43:29.442Z,10.25
2018-11-04T10:47:02.676Z,9.53
2018-11-04T10:50:35.925Z,8.70
2018-11-04T10:54:09.164Z,9.10
2018-11-04T10:57:42.502Z,9.57
2018-11-04T11:01:15.741Z,9.83
2018-11-04T11:04:49.010Z,10.37
2018-11-04T11:08:22.237Z,8.40
2018-11-04T11:11:55.509Z,10.40
2018-11-04T11:15:28.753Z,10.67
2018-11-04T11:19:02.013Z,9.07
2018-11-04T11:22:35.328Z,9.63
2018-11-04T11:26:08.521Z,8.17
2018-11-04T11:29:41.773Z,9.27
2018-11-04T11:33:15.026Z,9.53
2018-11-04T11:36:48.276Z,9.13
2018-11-04T11:40:21.501Z,9.77
2018-11-04T11:43:54.756Z,9.10
2018-11-04T11:47:28.025Z,9.90
2018-11-04T11:51:01.283Z,9.97
2018-11-04T11:54:34.521Z,8.60
2018-11-04T11:58:07.780Z,9.93
2018-11-04T12:01:41.029Z,8.87
2018-11-04T12:05:14.292Z,11.10
2018-11-04T12:08:47.557Z,8.20
2018-11-04T12:12:20.802Z,7.90
2018-11-04T12:15:54.049Z,8.50
2018-11-04T12:19:27.304Z,8.07
2018-11-04T12:23:00.552Z,9.03
2018-11-04T12:26:33.810Z,8.20
2018-11-04T12:30:09.073Z,8.90
2018-11-04T12:33:42.543Z,8.83
2018-11-04T12:37:16.681Z,9.60
2018-11-04T12:40:49.934Z,8.40
2018-11-04T12:44:23.189Z,7.67
2018-11-04T12:47:56.537Z,7.77
2018-11-04T12:51:30.017Z,9.20
2018-11-04T12:55:03.274Z,10.97
2018-11-04T12:58:36.519Z,9.20
2018-11-04T13:02:09.848Z,8.67
2018-11-04T13:05:43.018Z,7.67
2018-11-04T13:09:16.266Z,9.13
2018-11-04T13:12:49.517Z,8.37
2018-11-04T13:16:22.780Z,8.77
2018-11-04T13:19:56.017Z,9.90
2018-11-04T13:23:29.319Z,9.10
2018-11-04T13:27:02.602Z,9.30
2018-11-04T13:30:35.856Z,9.10
2018-11-04T13:34:09.100Z,9.57
2018-11-04T13:37:42.348Z,8.53
2018-11-04T13:41:15.585Z,8.03
2018-11-04T13:44:48.858Z,7.20
2018-11-04T13:48:22.513Z,7.03
2018-11-04T13:51:55.757Z,7.23
2018-11-04T13:55:29.013Z,8.50
2018-11-04T13:59:02.265Z,8.40
2018-11-04T14:02:36.052Z,8.30
2018-11-04T14:06:09.290Z,8.27
2018-11-04T14:09:42.553Z,9.27
2018-11-04T14:13:15.897Z,9.20
2018-11-04T14:16:49.108Z,8.80
2018-11-04T14:20:22.354Z,8.87
2018-11-04T14:23:55.696Z,8.33
2018-11-04T14:27:28.898Z,8.53
2018-11-04T14:31:02.175Z,8.83
2018-11-04T14:34:35.429Z,10.60
2018-11-04T14:38:08.673Z,8.30
2018-11-04T14:41:41.889Z,7.80
2018-11-04T14:45:15.182Z,10.07
2018-11-04T14:48:48.425Z,9.10
2018-11-04T14:52:21.678Z,10.00
2018-11-04T14:55:54.936Z,10.50
2018-11-04T14:59:28.164Z,8.73
2018-11-04T15:03:01.743Z,10.80
2018-11-04T15:06:34.982Z,10.07
2018-11-04T15:10:10.906Z,9.00
2018-11-04T15:13:44.169Z,8.90
2018-11-04T15:17:17.423Z,12.00
2018-11-04T15:20:50.761Z,9.90
2018-11-04T15:24:24.010Z,10.03
2018-11-04T15:27:57.307Z,10.70
2018-11-04T15:31:30.670Z,10.63
2018-11-04T15:35:04.007Z,10.30
2018-11-04T15:38:37.327Z,10.10
2018-11-04T15:42:10.541Z,10.03
2018-11-04T15:45:43.786Z,10.63
2018-11-04T15:49:17.051Z,11.67
2018-11-04T15:52:50.478Z,10.03
2018-11-04T15:56:23.726Z,9.50
2018-11-04T15:59:56.992Z,9.60
2018-11-04T16:03:30.245Z,10.03
2018-11-04T16:07:03.521Z,11.10
2018-11-04T16:10:36.785Z,10.10
2018-11-04T16:14:10.077Z,12.30
2018-11-04T16:17:44.046Z,13.07
2018-11-04T16:21:17.296Z,11.50
2018-11-04T16:24:50.570Z,10.87
2018-11-04T16:28:23.908Z,12.47
2018-11-04T16:31:57.749Z,10.60
2018-11-04T16:35:30.945Z,11.70
2018-11-04T16:39:05.353Z,11.00
2018-11-04T16:42:38.989Z,11.80
2018-11-04T16:46:12.261Z,11.50
2018-11-04T16:49:45.501Z,9.80
2018-11-04T16:53:18.760Z,11.00
2018-11-04T16:56:54.720Z,9.93
2018-11-04T17:00:28.101Z,10.80
2018-11-04T17:04:01.452Z,12.40
2018-11-04T17:07:34.912Z,13.17
2018-11-04T17:11:09.708Z,13.43
2018-11-04T17:14:43.285Z,12.73
2018-11-04T17:18:16.898Z,11.50
2018-11-04T17:21:50.017Z,13.70
2018-11-04T17:25:23.386Z,11.43
2018-11-04T17:28:56.653Z,11.80
2018-11-04T17:32:29.914Z,15.70
2018-11-04T17:36:03.282Z,12.00
2018-11-04T17:39:36.542Z,11.37
2018-11-04T17:43:09.760Z,14.90
2018-11-04T17:46:43.270Z,19.27
2018-11-04T17:50:18.004Z,12.90
2018-11-04T17:53:51.347Z,11.40
2018-11-04T17:57:24.612Z,12.90
2018-11-04T18:00:57.877Z,11.00
2018-11-04T18:04:31.129Z,10.73
2018-11-04T18:08:04.409Z,12.17
2018-11-04T18:11:37.648Z,10.83
2018-11-04T18:15:11.784Z,12.60
2018-11-04T18:18:45.070Z,12.00
2018-11-04T18:22:18.329Z,13.20
2018-11-04T18:25:51.565Z,12.97
2018-11-04T18:29:24.825Z,13.90
2018-11-04T18:32:58.081Z,14.27
2018-11-04T18:36:31.329Z,14.23
2018-11-04T18:40:05.801Z,13.67
2018-11-04T18:43:39.096Z,14.50
2018-11-04T18:47:12.345Z,13.10
2018-11-04T18:50:45.610Z,12.90
2018-11-04T18:54:18.861Z,15.00
2018-11-04T18:57:52.120Z,14.63
2018-11-04T19:01:25.381Z,14.63
2018-11-04T19:04:58.628Z,15.47
2018-11-04T19:08:31.877Z,15.40
2018-11-04T19:12:05.454Z,14.77
2018-11-04T19:15:38.707Z,14.57
2018-11-04T19:19:12.249Z,15.33
2018-11-04T19:22:45.623Z,18.27
2018-11-04T19:26:18.877Z,16.67
2018-11-04T19:29:52.226Z,16.17
2018-11-04T19:33:26.312Z,18.30
2018-11-04T19:36:59.618Z,15.80
2018-11-04T19:40:32.905Z,16.40
2018-11-04T19:44:06.770Z,17.10
2018-11-04T19:47:40.260Z,15.90
2018-11-04T19:51:13.827Z,16.90
2018-11-04T19:54:46.977Z,16.00
2018-11-04T19:58:20.246Z,17.37
2018-11-04T20:01:53.492Z,16.73
2018-11-04T20:05:26.907Z,19.47
2018-11-04T20:09:05.360Z,20.13
2018-11-04T20:12:44.065Z,18.33
2018-11-04T20:16:17.520Z,16.30
2018-11-04T20:19:56.151Z,18.30
2018-11-04T20:23:29.569Z,17.77
2018-11-04T20:27:02.828Z,19.83
2018-11-04T20:30:36.194Z,18.00
2018-11-04T20:34:09.544Z,19.60
2018-11-04T20:37:43.177Z,18.20
2018-11-04T20:41:21.770Z,18.97
2018-11-04T20:44:55.041Z,17.60
2018-11-04T20:48:33.716Z,21.50
2018-11-04T20:52:07.005Z,18.93
2018-11-04T20:55:45.560Z,19.00
2018-11-04T20:59:18.833Z,20.53
2018-11-04T21:02:52.127Z,20.63
2018-11-04T21:06:25.398Z,19.87
2018-11-04T21:09:58.842Z,20.30
2018-11-04T21:13:31.954Z,18.63
2018-11-04T21:17:05.538Z,21.17
2018-11-04T21:20:39.092Z,18.70
2018-11-04T21:24:12.333Z,16.90
2018-11-04T21:27:45.588Z,18.83
2018-11-04T21:31:19.270Z,17.87
2018-11-04T21:34:56.471Z,17.87
2018-11-04T21:38:29.740Z,15.80
2018-11-04T21:42:03.490Z,18.20
2018-11-04T21:45:36.839Z,15.97
2018-11-04T21:49:10.107Z,18.50
2018-11-04T21:52:43.551Z,15.20
2018-11-04T21:56:16.905Z,16.53
2018-11-04T21:59:50.261Z,16.13
2018-11-04T22:03:24.120Z,16.43
2018-11-04T22:06:57.169Z,16.43
2018-11-04T22:10:30.414Z,16.33
2018-11-04T22:14:03.754Z,17.73
2018-11-04T22:17:37.325Z,18.50
2018-11-04T22:21:10.629Z,16.17
2018-11-04T22:24:43.825Z,17.53
2018-11-04T22:28:17.064Z,18.47
2018-11-04T22:31:50.346Z,18.20
2018-11-04T22:35:23.626Z,19.07
2018-11-04T22:38:57.259Z,19.83
2018-11-04T22:42:30.497Z,19.57
2018-11-04T22:46:03.756Z,19.87
2018-11-04T22:49:37.250Z,20.17
2018-11-04T22:53:10.485Z,19.15
2018-11-04T22:56:43.710Z,20.70
2018-11-04T23:00:22.373Z,19.97
2018-11-04T23:03:55.641Z,19.87
2018-11-04T23:07:28.865Z,20.00
2018-11-04T23:11:02.207Z,19.60
2018-11-04T23:14:35.613Z,18.40
2018-11-04T23:18:08.871Z,18.40
2018-11-04T23:21:42.101Z,20.10
2018-11-04T23:25:15.553Z,20.27
2018-11-04T23:28:48.799Z,20.50
2018-11-04T23:32:22.046Z,20.43
2018-11-04T23:35:55.278Z,19.80
2018-11-04T23:39:28.513Z,20.47
2018-11-04T23:43:01.758Z,20.30
2018-11-04T23:46:34.984Z,20.57
2018-11-04T23:50:10.508Z,20.00
2018-11-04T23:53:43.748Z,20.10
2018-11-04T23:57:16.991Z,19.70
